sensor_id;sensor_type;location;lat;lon;timestamp;P1;durP1;ratioP1;P2;durP2;ratioP2
72404;SDS011;60395;52.020;113.548;2024-03-02T00:00:50;8.10;;;3.60;;
72404;SDS011;60395;52.020;113.548;2024-03-02T00:03:54;8.88;;;3.17;;
72404;SDS011;60395;52.020;113.548;2024-03-02T00:06:58;6.40;;;3.47;;
72404;SDS011;60395;52.020;113.548;2024-03-02T00:10:05;16.10;;;4.78;;
72404;SDS011;60395;52.020;113.548;2024-03-02T00:13:13;25.65;;;8.25;;
72404;SDS011;60395;52.020;113.548;2024-03-02T00:16:17;29.35;;;10.52;;
72404;SDS011;60395;52.020;113.548;2024-03-02T00:19:21;28.20;;;8.18;;
72404;SDS011;60395;52.020;113.548;2024-03-02T00:22:25;42.20;;;12.93;;
72404;SDS011;60395;52.020;113.548;2024-03-02T00:25:34;177.07;;;62.17;;
72404;SDS011;60395;52.020;113.548;2024-03-02T00:28:41;147.43;;;49.65;;
72404;SDS011;60395;52.020;113.548;2024-03-02T00:31:46;98.90;;;38.05;;
72404;SDS011;60395;52.020;113.548;2024-03-02T00:34:51;90.82;;;33.90;;
72404;SDS011;60395;52.020;113.548;2024-03-02T00:37:54;80.13;;;26.73;;
72404;SDS011;60395;52.020;113.548;2024-03-02T00:41:04;67.38;;;21.35;;
72404;SDS011;60395;52.020;113.548;2024-03-02T00:44:12;62.33;;;20.43;;
72404;SDS011;60395;52.020;113.548;2024-03-02T00:47:16;36.88;;;13.38;;
72404;SDS011;60395;52.020;113.548;2024-03-02T00:50:19;57.05;;;17.80;;
72404;SDS011;60395;52.020;113.548;2024-03-02T00:53:32;25.77;;;9.80;;
72404;SDS011;60395;52.020;113.548;2024-03-02T00:56:35;29.23;;;10.75;;
72404;SDS011;60395;52.020;113.548;2024-03-02T00:59:39;39.87;;;13.37;;
72404;SDS011;60395;52.020;113.548;2024-03-02T01:02:42;21.65;;;6.32;;
72404;SDS011;60395;52.020;113.548;2024-03-02T01:05:48;23.17;;;7.50;;
72404;SDS011;60395;52.020;113.548;2024-03-02T01:08:51;28.48;;;10.90;;
72404;SDS011;60395;52.020;113.548;2024-03-02T01:11:54;19.07;;;7.53;;
72404;SDS011;60395;52.020;113.548;2024-03-02T01:14:58;18.07;;;6.83;;
72404;SDS011;60395;52.020;113.548;2024-03-02T01:18:01;21.67;;;6.85;;
72404;SDS011;60395;52.020;113.548;2024-03-02T01:21:05;17.15;;;6.50;;
72404;SDS011;60395;52.020;113.548;2024-03-02T01:24:08;12.82;;;4.72;;
72404;SDS011;60395;52.020;113.548;2024-03-02T01:27:12;12.70;;;4.70;;
72404;SDS011;60395;52.020;113.548;2024-03-02T01:30:15;10.30;;;4.50;;
72404;SDS011;60395;52.020;113.548;2024-03-02T01:33:19;14.65;;;5.28;;
72404;SDS011;60395;52.020;113.548;2024-03-02T01:36:23;12.27;;;5.10;;
72404;SDS011;60395;52.020;113.548;2024-03-02T01:39:27;16.73;;;5.33;;
72404;SDS011;60395;52.020;113.548;2024-03-02T01:42:31;20.25;;;5.10;;
72404;SDS011;60395;52.020;113.548;2024-03-02T01:45:35;10.98;;;5.18;;
72404;SDS011;60395;52.020;113.548;2024-03-02T01:48:40;29.58;;;8.85;;
72404;SDS011;60395;52.020;113.548;2024-03-02T01:51:44;20.65;;;6.15;;
72404;SDS011;60395;52.020;113.548;2024-03-02T01:54:47;10.37;;;4.40;;
72404;SDS011;60395;52.020;113.548;2024-03-02T01:57:57;19.35;;;7.20;;
72404;SDS011;60395;52.020;113.548;2024-03-02T02:01:01;8.88;;;3.10;;
72404;SDS011;60395;52.020;113.548;2024-03-02T02:04:04;19.52;;;7.60;;
72404;SDS011;60395;52.020;113.548;2024-03-02T02:07:09;26.52;;;10.10;;
72404;SDS011;60395;52.020;113.548;2024-03-02T02:10:13;30.20;;;10.13;;
72404;SDS011;60395;52.020;113.548;2024-03-02T02:13:17;24.55;;;8.85;;
72404;SDS011;60395;52.020;113.548;2024-03-02T02:16:20;26.02;;;8.38;;
72404;SDS011;60395;52.020;113.548;2024-03-02T02:19:24;27.05;;;7.97;;
72404;SDS011;60395;52.020;113.548;2024-03-02T02:22:28;17.40;;;7.13;;
72404;SDS011;60395;52.020;113.548;2024-03-02T02:25:32;14.80;;;5.10;;
72404;SDS011;60395;52.020;113.548;2024-03-02T02:28:39;23.48;;;7.10;;
72404;SDS011;60395;52.020;113.548;2024-03-02T02:31:49;17.10;;;8.13;;
72404;SDS011;60395;52.020;113.548;2024-03-02T02:34:53;13.48;;;4.93;;
72404;SDS011;60395;52.020;113.548;2024-03-02T02:37:56;7.95;;;3.70;;
72404;SDS011;60395;52.020;113.548;2024-03-02T02:41:03;20.42;;;3.50;;
72404;SDS011;60395;52.020;113.548;2024-03-02T02:44:07;8.63;;;3.85;;
72404;SDS011;60395;52.020;113.548;2024-03-02T02:47:10;12.93;;;5.27;;
72404;SDS011;60395;52.020;113.548;2024-03-02T02:50:14;18.60;;;6.07;;
72404;SDS011;60395;52.020;113.548;2024-03-02T02:53:18;16.38;;;6.63;;
72404;SDS011;60395;52.020;113.548;2024-03-02T02:56:21;12.25;;;4.97;;
72404;SDS011;60395;52.020;113.548;2024-03-02T02:59:25;15.65;;;5.57;;
72404;SDS011;60395;52.020;113.548;2024-03-02T03:02:28;23.70;;;7.13;;
72404;SDS011;60395;52.020;113.548;2024-03-02T03:05:32;18.35;;;7.20;;
72404;SDS011;60395;52.020;113.548;2024-03-02T03:08:36;11.13;;;3.35;;
72404;SDS011;60395;52.020;113.548;2024-03-02T03:11:40;15.38;;;5.28;;
72404;SDS011;60395;52.020;113.548;2024-03-02T03:14:43;14.43;;;6.63;;
72404;SDS011;60395;52.020;113.548;2024-03-02T03:17:47;30.90;;;8.20;;
72404;SDS011;60395;52.020;113.548;2024-03-02T03:20:51;19.10;;;5.68;;
72404;SDS011;60395;52.020;113.548;2024-03-02T03:23:54;11.93;;;4.13;;
72404;SDS011;60395;52.020;113.548;2024-03-02T03:26:58;8.13;;;4.22;;
72404;SDS011;60395;52.020;113.548;2024-03-02T03:30:01;11.27;;;3.83;;
72404;SDS011;60395;52.020;113.548;2024-03-02T03:33:05;10.45;;;4.22;;
72404;SDS011;60395;52.020;113.548;2024-03-02T03:36:09;12.82;;;3.78;;
72404;SDS011;60395;52.020;113.548;2024-03-02T03:39:12;7.72;;;3.17;;
72404;SDS011;60395;52.020;113.548;2024-03-02T03:42:16;8.20;;;2.92;;
72404;SDS011;60395;52.020;113.548;2024-03-02T03:45:19;13.05;;;3.50;;
72404;SDS011;60395;52.020;113.548;2024-03-02T03:48:23;10.30;;;4.30;;
72404;SDS011;60395;52.020;113.548;2024-03-02T03:51:33;5.60;;;2.28;;
72404;SDS011;60395;52.020;113.548;2024-03-02T03:54:38;7.60;;;2.50;;
72404;SDS011;60395;52.020;113.548;2024-03-02T03:57:42;4.95;;;2.72;;
72404;SDS011;60395;52.020;113.548;2024-03-02T04:00:45;7.00;;;3.08;;
72404;SDS011;60395;52.020;113.548;2024-03-02T04:03:49;9.18;;;3.55;;
72404;SDS011;60395;52.020;113.548;2024-03-02T04:06:53;9.52;;;3.03;;
72404;SDS011;60395;52.020;113.548;2024-03-02T04:09:57;15.77;;;4.30;;
72404;SDS011;60395;52.020;113.548;2024-03-02T04:13:00;8.95;;;3.25;;
72404;SDS011;60395;52.020;113.548;2024-03-02T04:16:04;14.20;;;4.70;;
72404;SDS011;60395;52.020;113.548;2024-03-02T04:19:07;13.20;;;4.70;;
72404;SDS011;60395;52.020;113.548;2024-03-02T04:22:13;6.18;;;2.67;;
72404;SDS011;60395;52.020;113.548;2024-03-02T04:25:26;6.05;;;2.42;;
72404;SDS011;60395;52.020;113.548;2024-03-02T04:28:29;5.22;;;2.22;;
72404;SDS011;60395;52.020;113.548;2024-03-02T04:31:32;9.85;;;2.85;;
72404;SDS011;60395;52.020;113.548;2024-03-02T04:34:36;10.57;;;2.60;;
72404;SDS011;60395;52.020;113.548;2024-03-02T04:37:39;3.42;;;1.15;;
72404;SDS011;60395;52.020;113.548;2024-03-02T04:40:42;4.65;;;2.15;;
72404;SDS011;60395;52.020;113.548;2024-03-02T04:43:46;6.65;;;2.78;;
72404;SDS011;60395;52.020;113.548;2024-03-02T04:46:49;10.43;;;3.38;;
72404;SDS011;60395;52.020;113.548;2024-03-02T04:49:53;8.70;;;3.45;;
72404;SDS011;60395;52.020;113.548;2024-03-02T04:52:56;5.77;;;2.33;;
72404;SDS011;60395;52.020;113.548;2024-03-02T04:56:00;4.82;;;2.15;;
72404;SDS011;60395;52.020;113.548;2024-03-02T04:59:26;9.75;;;3.67;;
72404;SDS011;60395;52.020;113.548;2024-03-02T05:02:30;10.52;;;4.22;;
72404;SDS011;60395;52.020;113.548;2024-03-02T05:05:34;7.82;;;2.70;;
72404;SDS011;60395;52.020;113.548;2024-03-02T05:08:37;4.47;;;2.83;;
72404;SDS011;60395;52.020;113.548;2024-03-02T05:11:41;4.90;;;2.63;;
72404;SDS011;60395;52.020;113.548;2024-03-02T05:15:02;7.30;;;3.22;;
72404;SDS011;60395;52.020;113.548;2024-03-02T05:18:06;11.55;;;4.20;;
72404;SDS011;60395;52.020;113.548;2024-03-02T05:21:10;2.83;;;1.20;;
72404;SDS011;60395;52.020;113.548;2024-03-02T05:24:14;11.27;;;3.05;;
72404;SDS011;60395;52.020;113.548;2024-03-02T05:27:18;8.93;;;3.17;;
72404;SDS011;60395;52.020;113.548;2024-03-02T05:30:21;12.60;;;2.85;;
72404;SDS011;60395;52.020;113.548;2024-03-02T05:33:25;7.95;;;2.80;;
72404;SDS011;60395;52.020;113.548;2024-03-02T05:36:28;4.80;;;2.33;;
72404;SDS011;60395;52.020;113.548;2024-03-02T05:39:32;3.70;;;2.00;;
72404;SDS011;60395;52.020;113.548;2024-03-02T05:42:36;5.70;;;2.35;;
72404;SDS011;60395;52.020;113.548;2024-03-02T05:45:39;9.60;;;3.83;;
72404;SDS011;60395;52.020;113.548;2024-03-02T05:48:43;8.33;;;3.63;;
72404;SDS011;60395;52.020;113.548;2024-03-02T05:51:47;11.30;;;3.45;;
72404;SDS011;60395;52.020;113.548;2024-03-02T05:54:53;6.93;;;2.38;;
72404;SDS011;60395;52.020;113.548;2024-03-02T05:57:57;11.48;;;2.60;;
72404;SDS011;60395;52.020;113.548;2024-03-02T06:01:01;5.30;;;2.55;;
72404;SDS011;60395;52.020;113.548;2024-03-02T06:04:05;6.07;;;2.58;;
72404;SDS011;60395;52.020;113.548;2024-03-02T06:07:09;4.93;;;2.53;;
72404;SDS011;60395;52.020;113.548;2024-03-02T06:10:12;3.58;;;1.88;;
72404;SDS011;60395;52.020;113.548;2024-03-02T06:13:16;10.13;;;3.70;;
72404;SDS011;60395;52.020;113.548;2024-03-02T06:16:19;13.95;;;4.30;;
72404;SDS011;60395;52.020;113.548;2024-03-02T06:19:22;8.55;;;2.60;;
72404;SDS011;60395;52.020;113.548;2024-03-02T06:22:26;7.75;;;2.15;;
72404;SDS011;60395;52.020;113.548;2024-03-02T06:25:29;10.05;;;4.18;;
72404;SDS011;60395;52.020;113.548;2024-03-02T06:28:33;10.13;;;2.88;;
72404;SDS011;60395;52.020;113.548;2024-03-02T06:31:36;4.32;;;2.20;;
72404;SDS011;60395;52.020;113.548;2024-03-02T06:34:40;5.03;;;2.50;;
72404;SDS011;60395;52.020;113.548;2024-03-02T06:37:43;4.25;;;2.25;;
72404;SDS011;60395;52.020;113.548;2024-03-02T06:40:46;8.48;;;2.50;;
72404;SDS011;60395;52.020;113.548;2024-03-02T06:43:50;7.40;;;2.50;;
72404;SDS011;60395;52.020;113.548;2024-03-02T06:46:57;4.18;;;1.80;;
72404;SDS011;60395;52.020;113.548;2024-03-02T06:50:00;5.70;;;2.65;;
72404;SDS011;60395;52.020;113.548;2024-03-02T06:53:04;6.63;;;2.25;;
72404;SDS011;60395;52.020;113.548;2024-03-02T06:56:07;3.67;;;2.30;;
72404;SDS011;60395;52.020;113.548;2024-03-02T06:59:12;3.53;;;2.45;;
72404;SDS011;60395;52.020;113.548;2024-03-02T07:02:15;7.03;;;3.60;;
72404;SDS011;60395;52.020;113.548;2024-03-02T07:05:19;3.85;;;2.00;;
72404;SDS011;60395;52.020;113.548;2024-03-02T07:08:23;2.70;;;1.42;;
72404;SDS011;60395;52.020;113.548;2024-03-02T07:11:27;6.67;;;3.17;;
72404;SDS011;60395;52.020;113.548;2024-03-02T07:14:31;7.28;;;2.65;;
72404;SDS011;60395;52.020;113.548;2024-03-02T07:17:52;5.10;;;2.25;;
72404;SDS011;60395;52.020;113.548;2024-03-02T07:20:56;7.35;;;2.92;;
72404;SDS011;60395;52.020;113.548;2024-03-02T07:24:03;3.65;;;1.95;;
72404;SDS011;60395;52.020;113.548;2024-03-02T07:27:07;5.22;;;2.00;;
72404;SDS011;60395;52.020;113.548;2024-03-02T07:30:14;7.85;;;2.67;;
72404;SDS011;60395;52.020;113.548;2024-03-02T07:33:21;6.10;;;2.90;;
72404;SDS011;60395;52.020;113.548;2024-03-02T07:36:28;8.30;;;3.08;;
72404;SDS011;60395;52.020;113.548;2024-03-02T07:39:31;13.07;;;4.68;;
72404;SDS011;60395;52.020;113.548;2024-03-02T07:42:35;12.13;;;4.90;;
72404;SDS011;60395;52.020;113.548;2024-03-02T07:45:38;10.52;;;3.90;;
72404;SDS011;60395;52.020;113.548;2024-03-02T07:48:42;5.70;;;2.15;;
72404;SDS011;60395;52.020;113.548;2024-03-02T07:51:45;6.83;;;3.03;;
72404;SDS011;60395;52.020;113.548;2024-03-02T07:54:49;10.23;;;3.42;;
72404;SDS011;60395;52.020;113.548;2024-03-02T07:57:53;6.72;;;2.85;;
72404;SDS011;60395;52.020;113.548;2024-03-02T08:00:57;13.48;;;4.90;;
72404;SDS011;60395;52.020;113.548;2024-03-02T08:04:04;4.55;;;2.30;;
72404;SDS011;60395;52.020;113.548;2024-03-02T08:07:07;6.65;;;3.05;;
72404;SDS011;60395;52.020;113.548;2024-03-02T08:10:12;10.10;;;2.90;;
72404;SDS011;60395;52.020;113.548;2024-03-02T08:13:16;6.40;;;2.40;;
72404;SDS011;60395;52.020;113.548;2024-03-02T08:16:19;9.00;;;3.53;;
72404;SDS011;60395;52.020;113.548;2024-03-02T08:19:24;15.27;;;5.10;;
72404;SDS011;60395;52.020;113.548;2024-03-02T08:22:28;9.57;;;3.27;;
72404;SDS011;60395;52.020;113.548;2024-03-02T08:25:31;11.60;;;4.32;;
72404;SDS011;60395;52.020;113.548;2024-03-02T08:28:35;9.38;;;3.97;;
72404;SDS011;60395;52.020;113.548;2024-03-02T08:31:43;5.60;;;2.78;;
72404;SDS011;60395;52.020;113.548;2024-03-02T08:34:46;8.55;;;3.97;;
72404;SDS011;60395;52.020;113.548;2024-03-02T08:37:49;10.45;;;4.30;;
72404;SDS011;60395;52.020;113.548;2024-03-02T08:40:53;9.82;;;3.30;;
72404;SDS011;60395;52.020;113.548;2024-03-02T08:43:57;18.63;;;5.93;;
72404;SDS011;60395;52.020;113.548;2024-03-02T08:47:03;9.88;;;3.70;;
72404;SDS011;60395;52.020;113.548;2024-03-02T08:50:07;8.20;;;3.35;;
72404;SDS011;60395;52.020;113.548;2024-03-02T08:53:11;10.93;;;4.05;;
72404;SDS011;60395;52.020;113.548;2024-03-02T08:56:15;6.87;;;2.70;;
72404;SDS011;60395;52.020;113.548;2024-03-02T08:59:22;21.63;;;8.00;;
72404;SDS011;60395;52.020;113.548;2024-03-02T09:02:25;12.70;;;4.93;;
72404;SDS011;60395;52.020;113.548;2024-03-02T09:05:32;14.95;;;5.63;;
72404;SDS011;60395;52.020;113.548;2024-03-02T09:08:35;10.10;;;4.13;;
72404;SDS011;60395;52.020;113.548;2024-03-02T09:11:39;12.25;;;4.78;;
72404;SDS011;60395;52.020;113.548;2024-03-02T09:14:42;15.88;;;5.18;;
72404;SDS011;60395;52.020;113.548;2024-03-02T09:17:46;8.63;;;3.77;;
72404;SDS011;60395;52.020;113.548;2024-03-02T09:20:50;11.48;;;4.18;;
72404;SDS011;60395;52.020;113.548;2024-03-02T09:23:55;7.93;;;3.08;;
72404;SDS011;60395;52.020;113.548;2024-03-02T09:26:59;11.13;;;5.43;;
72404;SDS011;60395;52.020;113.548;2024-03-02T09:30:04;12.52;;;5.25;;
72404;SDS011;60395;52.020;113.548;2024-03-02T09:33:14;7.95;;;3.50;;
72404;SDS011;60395;52.020;113.548;2024-03-02T09:36:19;9.23;;;3.65;;
72404;SDS011;60395;52.020;113.548;2024-03-02T09:39:23;13.32;;;5.43;;
72404;SDS011;60395;52.020;113.548;2024-03-02T09:42:32;8.88;;;3.67;;
72404;SDS011;60395;52.020;113.548;2024-03-02T09:45:35;6.95;;;3.53;;
72404;SDS011;60395;52.020;113.548;2024-03-02T09:48:39;9.07;;;3.40;;
72404;SDS011;60395;52.020;113.548;2024-03-02T09:51:46;10.30;;;4.23;;
72404;SDS011;60395;52.020;113.548;2024-03-02T09:54:51;9.70;;;3.55;;
72404;SDS011;60395;52.020;113.548;2024-03-02T09:57:55;9.68;;;4.40;;
72404;SDS011;60395;52.020;113.548;2024-03-02T10:00:59;18.90;;;4.70;;
72404;SDS011;60395;52.020;113.548;2024-03-02T10:04:02;18.40;;;5.23;;
72404;SDS011;60395;52.020;113.548;2024-03-02T10:10:20;13.88;;;5.18;;
72404;SDS011;60395;52.020;113.548;2024-03-02T10:13:25;25.02;;;7.70;;
72404;SDS011;60395;52.020;113.548;2024-03-02T10:16:47;30.00;;;10.52;;
72404;SDS011;60395;52.020;113.548;2024-03-02T10:19:51;32.75;;;12.35;;
72404;SDS011;60395;52.020;113.548;2024-03-02T10:23:13;38.42;;;13.00;;
72404;SDS011;60395;52.020;113.548;2024-03-02T10:26:18;26.85;;;10.80;;
72404;SDS011;60395;52.020;113.548;2024-03-02T10:29:22;23.45;;;7.40;;
72404;SDS011;60395;52.020;113.548;2024-03-02T10:32:25;30.53;;;11.60;;
72404;SDS011;60395;52.020;113.548;2024-03-02T10:35:29;30.08;;;10.43;;
72404;SDS011;60395;52.020;113.548;2024-03-02T10:38:34;20.20;;;7.78;;
72404;SDS011;60395;52.020;113.548;2024-03-02T10:41:39;17.45;;;7.10;;
72404;SDS011;60395;52.020;113.548;2024-03-02T10:44:42;16.43;;;5.33;;
72404;SDS011;60395;52.020;113.548;2024-03-02T10:47:46;11.90;;;4.22;;
72404;SDS011;60395;52.020;113.548;2024-03-02T10:50:50;10.55;;;3.85;;
72404;SDS011;60395;52.020;113.548;2024-03-02T10:53:55;11.73;;;4.50;;
72404;SDS011;60395;52.020;113.548;2024-03-02T10:56:59;8.55;;;3.40;;
72404;SDS011;60395;52.020;113.548;2024-03-02T11:00:03;10.50;;;4.18;;
72404;SDS011;60395;52.020;113.548;2024-03-02T11:03:14;17.27;;;5.68;;
72404;SDS011;60395;52.020;113.548;2024-03-02T11:06:20;15.48;;;5.03;;
72404;SDS011;60395;52.020;113.548;2024-03-02T11:09:27;29.95;;;11.20;;
72404;SDS011;60395;52.020;113.548;2024-03-02T11:12:46;14.85;;;5.70;;
72404;SDS011;60395;52.020;113.548;2024-03-02T11:15:56;14.32;;;5.53;;
72404;SDS011;60395;52.020;113.548;2024-03-02T11:19:15;13.40;;;5.18;;
72404;SDS011;60395;52.020;113.548;2024-03-02T11:25:27;16.23;;;5.50;;
72404;SDS011;60395;52.020;113.548;2024-03-02T11:28:34;19.58;;;6.95;;
72404;SDS011;60395;52.020;113.548;2024-03-02T11:31:58;11.95;;;5.60;;
72404;SDS011;60395;52.020;113.548;2024-03-02T11:38:13;9.27;;;5.00;;
72404;SDS011;60395;52.020;113.548;2024-03-02T11:41:17;18.73;;;6.78;;
72404;SDS011;60395;52.020;113.548;2024-03-02T11:44:22;25.33;;;8.48;;
72404;SDS011;60395;52.020;113.548;2024-03-02T11:47:27;23.02;;;8.05;;
72404;SDS011;60395;52.020;113.548;2024-03-02T11:50:40;22.90;;;8.85;;
72404;SDS011;60395;52.020;113.548;2024-03-02T11:53:48;31.35;;;9.55;;
72404;SDS011;60395;52.020;113.548;2024-03-02T11:56:53;38.55;;;13.90;;
72404;SDS011;60395;52.020;113.548;2024-03-02T11:59:57;25.38;;;9.05;;
72404;SDS011;60395;52.020;113.548;2024-03-02T12:06:12;29.45;;;8.57;;
72404;SDS011;60395;52.020;113.548;2024-03-02T12:09:16;44.67;;;11.00;;
72404;SDS011;60395;52.020;113.548;2024-03-02T12:15:29;15.27;;;6.13;;
72404;SDS011;60395;52.020;113.548;2024-03-02T12:18:33;19.35;;;6.38;;
72404;SDS011;60395;52.020;113.548;2024-03-02T12:21:37;26.15;;;8.15;;
72404;SDS011;60395;52.020;113.548;2024-03-02T12:27:49;19.42;;;7.80;;
72404;SDS011;60395;52.020;113.548;2024-03-02T12:30:57;17.02;;;7.55;;
72404;SDS011;60395;52.020;113.548;2024-03-02T12:34:01;17.77;;;5.93;;
72404;SDS011;60395;52.020;113.548;2024-03-02T12:37:07;17.77;;;6.28;;
72404;SDS011;60395;52.020;113.548;2024-03-02T12:40:11;19.25;;;6.45;;
72404;SDS011;60395;52.020;113.548;2024-03-02T12:43:16;25.60;;;8.43;;
72404;SDS011;60395;52.020;113.548;2024-03-02T12:46:19;26.40;;;8.93;;
72404;SDS011;60395;52.020;113.548;2024-03-02T12:49:23;20.35;;;8.10;;
72404;SDS011;60395;52.020;113.548;2024-03-02T12:52:27;28.17;;;9.50;;
72404;SDS011;60395;52.020;113.548;2024-03-02T12:55:31;29.47;;;10.37;;
72404;SDS011;60395;52.020;113.548;2024-03-02T12:58:41;25.05;;;7.95;;
72404;SDS011;60395;52.020;113.548;2024-03-02T13:01:51;29.33;;;9.10;;
72404;SDS011;60395;52.020;113.548;2024-03-02T13:05:00;40.28;;;9.82;;
72404;SDS011;60395;52.020;113.548;2024-03-02T13:08:06;31.55;;;10.52;;
72404;SDS011;60395;52.020;113.548;2024-03-02T13:11:10;37.38;;;12.63;;
72404;SDS011;60395;52.020;113.548;2024-03-02T13:14:14;47.90;;;14.15;;
72404;SDS011;60395;52.020;113.548;2024-03-02T13:17:18;34.65;;;10.98;;
72404;SDS011;60395;52.020;113.548;2024-03-02T13:23:28;28.08;;;8.75;;
72404;SDS011;60395;52.020;113.548;2024-03-02T13:26:33;28.25;;;10.05;;
72404;SDS011;60395;52.020;113.548;2024-03-02T13:29:37;23.45;;;10.18;;
72404;SDS011;60395;52.020;113.548;2024-03-02T13:32:40;21.33;;;9.20;;
72404;SDS011;60395;52.020;113.548;2024-03-02T13:35:44;27.50;;;10.63;;
72404;SDS011;60395;52.020;113.548;2024-03-02T13:38:47;14.55;;;6.47;;
72404;SDS011;60395;52.020;113.548;2024-03-02T13:41:50;17.23;;;6.65;;
72404;SDS011;60395;52.020;113.548;2024-03-02T13:45:04;14.43;;;5.73;;
72404;SDS011;60395;52.020;113.548;2024-03-02T13:51:12;16.70;;;6.20;;
72404;SDS011;60395;52.020;113.548;2024-03-02T13:54:15;13.55;;;6.25;;
72404;SDS011;60395;52.020;113.548;2024-03-02T13:57:19;41.70;;;10.30;;
72404;SDS011;60395;52.020;113.548;2024-03-02T14:00:27;21.27;;;8.32;;
72404;SDS011;60395;52.020;113.548;2024-03-02T14:03:31;16.38;;;6.20;;
72404;SDS011;60395;52.020;113.548;2024-03-02T14:06:35;19.80;;;8.23;;
72404;SDS011;60395;52.020;113.548;2024-03-02T14:09:38;24.60;;;7.68;;
72404;SDS011;60395;52.020;113.548;2024-03-02T14:12:42;18.83;;;6.90;;
72404;SDS011;60395;52.020;113.548;2024-03-02T14:15:49;15.70;;;6.97;;
72404;SDS011;60395;52.020;113.548;2024-03-02T14:18:52;18.13;;;6.20;;
72404;SDS011;60395;52.020;113.548;2024-03-02T14:21:56;19.13;;;7.07;;
72404;SDS011;60395;52.020;113.548;2024-03-02T14:25:00;18.08;;;6.28;;
72404;SDS011;60395;52.020;113.548;2024-03-02T14:28:03;17.17;;;7.50;;
72404;SDS011;60395;52.020;113.548;2024-03-02T14:31:27;18.42;;;7.07;;
72404;SDS011;60395;52.020;113.548;2024-03-02T14:37:37;21.13;;;8.35;;
72404;SDS011;60395;52.020;113.548;2024-03-02T14:40:41;17.70;;;6.75;;
72404;SDS011;60395;52.020;113.548;2024-03-02T14:43:45;25.17;;;7.40;;
72404;SDS011;60395;52.020;113.548;2024-03-02T14:46:48;14.57;;;5.57;;
72404;SDS011;60395;52.020;113.548;2024-03-02T14:49:53;38.03;;;6.80;;
72404;SDS011;60395;52.020;113.548;2024-03-02T14:52:56;23.60;;;8.27;;
72404;SDS011;60395;52.020;113.548;2024-03-02T14:56:00;17.40;;;7.03;;
72404;SDS011;60395;52.020;113.548;2024-03-02T14:59:03;19.60;;;7.13;;
72404;SDS011;60395;52.020;113.548;2024-03-02T15:02:07;15.75;;;7.05;;
72404;SDS011;60395;52.020;113.548;2024-03-02T15:05:11;12.95;;;5.88;;
72404;SDS011;60395;52.020;113.548;2024-03-02T15:08:14;16.83;;;6.25;;
72404;SDS011;60395;52.020;113.548;2024-03-02T15:11:18;15.70;;;5.53;;
72404;SDS011;60395;52.020;113.548;2024-03-02T15:14:21;25.10;;;7.47;;
72404;SDS011;60395;52.020;113.548;2024-03-02T15:17:25;19.30;;;5.63;;
72404;SDS011;60395;52.020;113.548;2024-03-02T15:20:29;21.98;;;6.22;;
72404;SDS011;60395;52.020;113.548;2024-03-02T15:23:32;10.70;;;5.17;;
72404;SDS011;60395;52.020;113.548;2024-03-02T15:26:36;12.13;;;4.78;;
72404;SDS011;60395;52.020;113.548;2024-03-02T15:29:40;14.10;;;5.10;;
72404;SDS011;60395;52.020;113.548;2024-03-02T15:32:43;13.20;;;5.27;;
72404;SDS011;60395;52.020;113.548;2024-03-02T15:35:46;9.40;;;4.77;;
72404;SDS011;60395;52.020;113.548;2024-03-02T15:38:50;12.10;;;5.50;;
72404;SDS011;60395;52.020;113.548;2024-03-02T15:41:54;24.08;;;4.80;;
72404;SDS011;60395;52.020;113.548;2024-03-02T15:44:57;12.13;;;3.95;;
72404;SDS011;60395;52.020;113.548;2024-03-02T15:48:00;13.80;;;4.72;;
72404;SDS011;60395;52.020;113.548;2024-03-02T15:51:04;16.10;;;4.90;;
72404;SDS011;60395;52.020;113.548;2024-03-02T15:54:08;7.35;;;4.07;;
72404;SDS011;60395;52.020;113.548;2024-03-02T15:57:11;12.47;;;5.00;;
72404;SDS011;60395;52.020;113.548;2024-03-02T16:00:15;18.42;;;5.45;;
72404;SDS011;60395;52.020;113.548;2024-03-02T16:03:19;16.52;;;5.38;;
72404;SDS011;60395;52.020;113.548;2024-03-02T16:06:22;11.73;;;4.70;;
72404;SDS011;60395;52.020;113.548;2024-03-02T16:09:26;16.88;;;5.50;;
72404;SDS011;60395;52.020;113.548;2024-03-02T16:12:30;10.82;;;5.22;;
72404;SDS011;60395;52.020;113.548;2024-03-02T16:15:33;15.33;;;4.87;;
72404;SDS011;60395;52.020;113.548;2024-03-02T16:18:37;15.63;;;5.85;;
72404;SDS011;60395;52.020;113.548;2024-03-02T16:21:40;15.60;;;6.87;;
72404;SDS011;60395;52.020;113.548;2024-03-02T16:24:43;12.93;;;6.47;;
72404;SDS011;60395;52.020;113.548;2024-03-02T16:27:47;23.38;;;5.57;;
72404;SDS011;60395;52.020;113.548;2024-03-02T16:30:50;15.57;;;6.37;;
72404;SDS011;60395;52.020;113.548;2024-03-02T16:33:56;11.57;;;4.10;;
72404;SDS011;60395;52.020;113.548;2024-03-02T16:36:59;31.23;;;5.13;;
72404;SDS011;60395;52.020;113.548;2024-03-02T16:40:03;15.33;;;5.37;;
72404;SDS011;60395;52.020;113.548;2024-03-02T16:43:08;31.83;;;6.57;;
72404;SDS011;60395;52.020;113.548;2024-03-02T16:46:11;24.77;;;5.43;;
72404;SDS011;60395;52.020;113.548;2024-03-02T16:49:15;16.27;;;5.33;;
72404;SDS011;60395;52.020;113.548;2024-03-02T16:52:18;8.33;;;2.43;;
72404;SDS011;60395;52.020;113.548;2024-03-02T16:55:22;18.70;;;5.88;;
72404;SDS011;60395;52.020;113.548;2024-03-02T16:58:26;25.70;;;7.22;;
72404;SDS011;60395;52.020;113.548;2024-03-02T17:01:29;18.23;;;6.10;;
72404;SDS011;60395;52.020;113.548;2024-03-02T17:04:32;20.50;;;6.83;;
72404;SDS011;60395;52.020;113.548;2024-03-02T17:07:36;30.25;;;5.85;;
72404;SDS011;60395;52.020;113.548;2024-03-02T17:10:40;19.30;;;6.53;;
72404;SDS011;60395;52.020;113.548;2024-03-02T17:13:43;25.27;;;7.70;;
72404;SDS011;60395;52.020;113.548;2024-03-02T17:16:46;20.23;;;6.73;;
72404;SDS011;60395;52.020;113.548;2024-03-02T17:19:50;21.77;;;6.43;;
72404;SDS011;60395;52.020;113.548;2024-03-02T17:22:53;21.13;;;7.00;;
72404;SDS011;60395;52.020;113.548;2024-03-02T17:25:57;33.97;;;7.28;;
72404;SDS011;60395;52.020;113.548;2024-03-02T17:29:00;23.27;;;6.30;;
72404;SDS011;60395;52.020;113.548;2024-03-02T17:32:03;22.07;;;6.53;;
72404;SDS011;60395;52.020;113.548;2024-03-02T17:35:07;19.10;;;5.80;;
72404;SDS011;60395;52.020;113.548;2024-03-02T17:38:11;5.38;;;2.47;;
72404;SDS011;60395;52.020;113.548;2024-03-02T17:41:14;12.90;;;5.63;;
72404;SDS011;60395;52.020;113.548;2024-03-02T17:44:18;11.80;;;5.00;;
72404;SDS011;60395;52.020;113.548;2024-03-02T17:47:22;13.23;;;4.05;;
72404;SDS011;60395;52.020;113.548;2024-03-02T17:50:25;16.60;;;5.40;;
72404;SDS011;60395;52.020;113.548;2024-03-02T17:53:29;11.65;;;5.07;;
72404;SDS011;60395;52.020;113.548;2024-03-02T17:56:32;22.63;;;5.57;;
72404;SDS011;60395;52.020;113.548;2024-03-02T17:59:36;11.77;;;5.13;;
72404;SDS011;60395;52.020;113.548;2024-03-02T18:02:40;11.82;;;4.45;;
72404;SDS011;60395;52.020;113.548;2024-03-02T18:05:43;18.27;;;5.47;;
72404;SDS011;60395;52.020;113.548;2024-03-02T18:08:47;16.52;;;5.32;;
72404;SDS011;60395;52.020;113.548;2024-03-02T18:11:53;15.80;;;5.28;;
72404;SDS011;60395;52.020;113.548;2024-03-02T18:14:56;21.23;;;6.07;;